Terminal Aerodrome Forecast
Issued by NWS

Home | Current Version | Previous Version | Text Only | Print | Product List | Glossary Off
Versions: 1 2 3 4 5 6 7 8 9 10 11 12 13 14 15 16

222
FTUS43 KOAX 200206 AAB
TAFCDR
TAF AMD
KCDR 200206Z 2002/2024 02012KT 1/2SM SN FZFG OVC006
     FM200800 35010KT 2SM -SN BR OVC025
     FM201000 33008KT 3SM -SN OVC045
     FM201400 31010KT P6SM BKN060=

USA.gov is the U.S. government's official web portal to all federal, state and local government web resources and services.